createdAt,value
2018-12-21T00:01:36.686Z,100725.00
2018-12-21T00:04:10.884Z,100734.00
2018-12-21T00:09:48.994Z,100724.00
2018-12-21T00:12:23.320Z,100729.00
2018-12-21T00:14:57.576Z,100732.00
2018-12-21T00:17:34.721Z,100726.00
2018-12-21T00:20:08.689Z,100728.00
2018-12-21T00:22:41.415Z,100723.00
2018-12-21T00:25:16.076Z,100722.00
2018-12-21T00:31:01.378Z,100709.00
2018-12-21T00:33:41.544Z,100703.00
2018-12-21T00:36:21.567Z,100697.00
2018-12-21T00:39:01.605Z,100691.00
2018-12-21T00:41:40.660Z,100687.00
2018-12-21T00:44:16.987Z,100696.00
2018-12-21T00:46:50.859Z,100702.00
2018-12-21T00:49:28.539Z,100694.00
2018-12-21T00:52:02.981Z,100688.00
2018-12-21T00:54:37.465Z,100695.00
2018-12-21T00:57:11.599Z,100686.00
2018-12-21T00:59:46.079Z,100693.00
2018-12-21T01:02:20.376Z,100693.00
2018-12-21T01:04:54.796Z,100688.00
2018-12-21T01:07:46.319Z,100682.00
2018-12-21T01:10:21.153Z,100669.00
2018-12-21T01:12:58.499Z,100673.00
2018-12-21T01:15:32.763Z,100656.00
2018-12-21T01:18:06.780Z,100652.00
2018-12-21T01:20:40.894Z,100645.00
2018-12-21T01:23:15.111Z,100644.00
2018-12-21T01:25:51.116Z,100647.00
2018-12-21T01:28:25.290Z,100644.00
2018-12-21T01:30:59.482Z,100630.00
2018-12-21T01:33:33.653Z,100637.00
2018-12-21T01:36:07.938Z,100628.00
2018-12-21T01:38:42.113Z,100613.00
2018-12-21T01:41:29.581Z,100605.00
2018-12-21T01:44:06.384Z,100596.00
2018-12-21T01:46:40.567Z,100601.00
2018-12-21T01:49:14.728Z,100597.00
2018-12-21T01:51:48.904Z,100589.00
2018-12-21T01:54:23.059Z,100581.00
2018-12-21T01:56:57.156Z,100580.00
2018-12-21T01:59:31.630Z,100561.00
2018-12-21T02:02:06.025Z,100576.00
2018-12-21T02:04:43.322Z,100570.00
2018-12-21T02:07:19.711Z,100565.00
2018-12-21T02:10:07.398Z,100560.00
2018-12-21T02:12:39.368Z,100553.00
2018-12-21T02:21:17.238Z,100538.00
2018-12-21T02:23:51.107Z,100534.00
2018-12-21T02:26:25.433Z,100529.00
2018-12-21T02:29:12.946Z,100527.00
2018-12-21T02:31:45.661Z,100517.00
2018-12-21T02:34:20.115Z,100516.00
2018-12-21T02:36:54.224Z,100509.00
2018-12-21T02:39:28.408Z,100512.00
2018-12-21T02:42:02.455Z,100498.00
2018-12-21T02:44:36.487Z,100513.00
2018-12-21T02:47:10.642Z,100505.00
2018-12-21T02:49:44.723Z,100514.00
2018-12-21T02:52:18.877Z,100506.00
2018-12-21T02:54:53.126Z,100509.00
2018-12-21T02:57:27.409Z,100498.00
2018-12-21T03:00:01.712Z,100503.00
2018-12-21T03:02:35.688Z,100497.00
2018-12-21T03:05:09.666Z,100476.00
2018-12-21T03:07:57.293Z,100463.00
2018-12-21T03:10:31.488Z,100454.00
2018-12-21T03:13:05.851Z,100450.00
2018-12-21T03:15:48.763Z,100439.00
2018-12-21T03:18:23.347Z,100431.00
2018-12-21T03:20:57.611Z,100434.00
2018-12-21T03:23:31.858Z,100424.00
2018-12-21T03:26:06.084Z,100406.00
2018-12-21T03:28:40.314Z,100403.00
2018-12-21T03:31:14.694Z,100405.00
2018-12-21T03:33:48.848Z,100394.00
2018-12-21T03:36:23.056Z,100386.00
2018-12-21T03:39:01.000Z,100376.00
2018-12-21T03:41:36.061Z,100367.00
2018-12-21T03:44:10.943Z,100358.00
2018-12-21T03:46:45.403Z,100362.00
2018-12-21T03:49:19.660Z,100352.00
2018-12-21T03:51:53.582Z,100351.00
2018-12-21T03:57:38.443Z,100336.00
2018-12-21T04:00:13.016Z,100326.00
2018-12-21T04:02:47.355Z,100323.00
2018-12-21T04:05:19.889Z,100311.00
2018-12-21T04:08:15.641Z,100302.00
2018-12-21T04:10:50.047Z,100301.00
2018-12-21T04:13:24.123Z,100289.00
2018-12-21T04:15:58.446Z,100284.00
2018-12-21T04:18:31.173Z,100275.00
2018-12-21T04:21:05.432Z,100269.00
2018-12-21T04:23:39.534Z,100267.00
2018-12-21T04:26:13.883Z,100261.00
2018-12-21T04:28:48.310Z,100253.00
2018-12-21T04:31:27.647Z,100258.00
2018-12-21T04:34:01.659Z,100264.00
2018-12-21T04:36:36.105Z,100257.00
2018-12-21T04:39:10.405Z,100248.00
2018-12-21T04:44:44.773Z,100227.00
2018-12-21T04:47:18.797Z,100227.00
2018-12-21T04:49:52.808Z,100216.00
2018-12-21T04:52:26.842Z,100225.00
2018-12-21T04:55:00.965Z,100211.00
2018-12-21T04:57:35.296Z,100206.00
2018-12-21T05:00:10.991Z,100200.00
2018-12-21T05:02:45.748Z,100195.00
2018-12-21T05:05:21.942Z,100187.00
2018-12-21T05:07:56.681Z,100178.00
2018-12-21T05:10:30.915Z,100175.00
2018-12-21T05:13:05.336Z,100169.00
2018-12-21T05:15:39.699Z,100151.00
2018-12-21T05:18:13.676Z,100145.00
2018-12-21T05:20:48.004Z,100138.00
2018-12-21T05:23:22.171Z,100124.00
2018-12-21T05:25:59.420Z,100104.00
2018-12-21T05:28:33.682Z,100086.00
2018-12-21T05:31:28.179Z,100080.00
2018-12-21T05:33:58.235Z,100080.00
2018-12-21T05:36:32.624Z,100073.00
2018-12-21T05:39:07.190Z,100063.00
2018-12-21T05:41:43.268Z,100051.00
2018-12-21T05:44:17.637Z,100048.00
2018-12-21T05:46:52.068Z,100039.00
2018-12-21T05:49:26.054Z,100025.00
2018-12-21T05:52:00.216Z,100016.00
2018-12-21T05:54:46.011Z,100005.00
2018-12-21T05:57:20.534Z,99997.00
2018-12-21T05:59:54.487Z,99991.00
2018-12-21T06:02:28.511Z,99984.00
2018-12-21T06:05:02.706Z,99976.00
2018-12-21T06:07:36.795Z,99976.00
2018-12-21T06:10:11.085Z,99971.00
2018-12-21T06:12:45.427Z,99967.00
2018-12-21T06:15:20.688Z,99961.00
2018-12-21T06:17:55.493Z,99948.00
2018-12-21T06:20:29.802Z,99940.00
2018-12-21T06:23:09.503Z,99934.00
2018-12-21T06:25:40.572Z,99936.00
2018-12-21T06:28:15.106Z,99928.00
2018-12-21T06:30:49.510Z,99922.00
2018-12-21T06:33:23.688Z,99912.00
2018-12-21T06:35:57.772Z,99912.00
2018-12-21T06:38:32.062Z,99905.00
2018-12-21T06:41:06.302Z,99892.00
2018-12-21T06:43:40.446Z,99891.00
2018-12-21T06:46:14.575Z,99890.00
2018-12-21T06:48:48.608Z,99874.00
2018-12-21T06:51:23.110Z,99867.00
2018-12-21T06:53:55.038Z,99851.00
2018-12-21T06:56:28.896Z,99836.00
2018-12-21T06:59:02.958Z,99832.00
2018-12-21T07:01:37.078Z,99822.00
2018-12-21T07:04:11.183Z,99820.00
2018-12-21T07:06:58.819Z,99818.00
2018-12-21T07:09:32.916Z,99820.00
2018-12-21T07:12:20.389Z,99806.00
2018-12-21T07:14:54.352Z,99818.00
2018-12-21T07:17:28.536Z,99791.00
2018-12-21T07:20:02.718Z,99789.00
2018-12-21T07:22:37.005Z,99786.00
2018-12-21T07:25:11.191Z,99770.00
2018-12-21T07:27:48.700Z,99768.00
2018-12-21T07:30:23.007Z,99764.00
2018-12-21T07:32:57.177Z,99762.00
2018-12-21T07:35:31.413Z,99756.00
2018-12-21T07:38:05.324Z,99749.00
2018-12-21T07:40:39.295Z,99745.00
2018-12-21T07:43:13.688Z,99747.00
2018-12-21T07:45:50.091Z,99736.00
2018-12-21T07:48:28.426Z,99728.00
2018-12-21T07:51:02.631Z,99719.00
2018-12-21T07:53:36.970Z,99700.00
2018-12-21T07:56:11.160Z,99699.00
2018-12-21T07:58:45.176Z,99694.00
2018-12-21T08:01:23.504Z,99675.00
2018-12-21T08:03:57.955Z,99665.00
2018-12-21T08:09:38.269Z,99666.00
2018-12-21T08:12:10.684Z,99653.00
2018-12-21T08:14:44.631Z,99620.00
2018-12-21T08:17:18.619Z,99619.00
2018-12-21T08:19:52.813Z,99620.00
2018-12-21T08:22:27.034Z,99613.00
2018-12-21T08:24:59.126Z,99604.00
2018-12-21T08:27:33.240Z,99591.00
2018-12-21T08:30:08.990Z,99610.00
2018-12-21T08:32:43.373Z,99603.00
2018-12-21T08:35:17.613Z,99591.00
2018-12-21T08:37:52.119Z,99592.00
2018-12-21T08:40:26.762Z,99577.00
2018-12-21T08:43:01.157Z,99585.00
2018-12-21T08:45:35.363Z,99581.00
2018-12-21T08:48:09.462Z,99581.00
2018-12-21T08:50:43.656Z,99577.00
2018-12-21T08:53:17.823Z,99563.00
2018-12-21T08:55:52.031Z,99566.00
2018-12-21T08:58:26.452Z,99560.00
2018-12-21T09:01:00.665Z,99565.00
2018-12-21T09:03:34.860Z,99553.00
2018-12-21T09:06:09.034Z,99548.00
2018-12-21T09:08:45.110Z,99556.00
2018-12-21T09:11:22.645Z,99555.00
2018-12-21T09:13:54.035Z,99542.00
2018-12-21T09:16:28.113Z,99557.00
2018-12-21T09:19:02.244Z,99540.00
2018-12-21T09:21:36.418Z,99535.00
2018-12-21T09:24:11.040Z,99534.00
2018-12-21T09:26:45.326Z,99535.00
2018-12-21T09:29:19.345Z,99535.00
2018-12-21T09:32:06.918Z,99534.00
2018-12-21T09:34:40.803Z,99530.00
2018-12-21T09:37:15.499Z,99534.00
2018-12-21T09:39:54.017Z,99538.00
2018-12-21T09:42:28.101Z,99528.00
2018-12-21T09:45:02.135Z,99531.00
2018-12-21T09:47:39.224Z,99516.00
2018-12-21T09:50:13.373Z,99522.00
2018-12-21T09:52:47.729Z,99520.00
2018-12-21T09:55:26.858Z,99514.00
2018-12-21T09:58:01.182Z,99516.00
2018-12-21T10:00:37.402Z,99509.00
2018-12-21T10:06:11.735Z,99505.00
2018-12-21T10:08:46.530Z,99513.00
2018-12-21T10:11:34.057Z,99506.00
2018-12-21T10:14:06.075Z,99512.00
2018-12-21T10:16:40.074Z,99505.00
2018-12-21T10:19:14.457Z,99503.00
2018-12-21T10:21:45.684Z,99503.00
2018-12-21T10:24:19.537Z,99508.00
2018-12-21T10:26:53.741Z,99486.00
2018-12-21T10:29:28.072Z,99493.00
2018-12-21T10:32:02.358Z,99477.00
2018-12-21T10:34:36.285Z,99491.00
2018-12-21T10:37:10.814Z,99473.00
2018-12-21T10:39:48.940Z,99486.00
2018-12-21T10:42:23.235Z,99491.00
2018-12-21T10:44:57.762Z,99496.00
2018-12-21T10:47:35.625Z,99498.00
2018-12-21T10:50:13.036Z,99486.00
2018-12-21T10:52:47.133Z,99486.00
2018-12-21T10:55:24.484Z,99489.00
2018-12-21T10:57:58.647Z,99493.00
2018-12-21T11:00:32.952Z,99496.00
2018-12-21T11:03:10.738Z,99499.00
2018-12-21T11:05:45.296Z,99501.00
2018-12-21T11:08:19.387Z,99483.00
2018-12-21T11:10:55.154Z,99481.00
2018-12-21T11:13:29.676Z,99478.00
2018-12-21T11:16:17.095Z,99488.00
2018-12-21T11:18:53.045Z,99483.00
2018-12-21T11:21:27.304Z,99478.00
2018-12-21T11:24:01.221Z,99483.00
2018-12-21T11:26:35.107Z,99493.00
2018-12-21T11:29:09.176Z,99485.00
2018-12-21T11:31:43.304Z,99489.00
2018-12-21T11:34:17.689Z,99483.00
2018-12-21T11:36:51.803Z,99482.00
2018-12-21T11:39:25.977Z,99482.00
2018-12-21T11:42:00.077Z,99495.00
2018-12-21T11:44:34.978Z,99494.00
2018-12-21T11:47:07.920Z,99496.00
2018-12-21T11:49:42.462Z,99494.00
2018-12-21T11:52:14.386Z,99497.00
2018-12-21T11:54:48.532Z,99496.00
2018-12-21T11:57:22.732Z,99491.00
2018-12-21T11:59:56.908Z,99507.00
2018-12-21T12:02:30.998Z,99508.00
2018-12-21T12:05:06.101Z,99489.00
2018-12-21T12:07:40.164Z,99506.00
2018-12-21T12:10:14.395Z,99500.00
2018-12-21T12:12:48.722Z,99502.00
2018-12-21T12:15:23.470Z,99494.00
2018-12-21T12:18:00.777Z,99489.00
2018-12-21T12:20:34.832Z,99502.00
2018-12-21T12:23:08.896Z,99509.00
2018-12-21T12:25:45.841Z,99497.00
2018-12-21T12:28:26.402Z,99504.00
2018-12-21T12:31:00.753Z,99499.00
2018-12-21T12:33:34.900Z,99515.00
2018-12-21T12:36:08.747Z,99511.00
2018-12-21T12:38:44.183Z,99502.00
2018-12-21T12:41:18.638Z,99508.00
2018-12-21T12:43:52.725Z,99513.00
2018-12-21T12:46:26.769Z,99504.00
2018-12-21T12:49:00.843Z,99513.00
2018-12-21T12:51:35.250Z,99528.00
2018-12-21T12:54:09.399Z,99539.00
2018-12-21T12:56:43.549Z,99532.00
2018-12-21T12:59:17.761Z,99528.00
2018-12-21T13:01:51.845Z,99539.00
2018-12-21T13:04:30.117Z,99545.00
2018-12-21T13:07:04.187Z,99543.00
2018-12-21T13:09:38.389Z,99557.00
2018-12-21T13:12:12.732Z,99560.00
2018-12-21T13:14:46.928Z,99566.00
2018-12-21T13:17:24.936Z,99578.00
2018-12-21T13:19:59.538Z,99565.00
2018-12-21T13:22:36.668Z,99574.00
2018-12-21T13:25:11.577Z,99574.00
2018-12-21T13:27:45.831Z,99584.00
2018-12-21T13:30:20.023Z,99593.00
2018-12-21T13:32:52.130Z,99605.00
2018-12-21T13:35:26.150Z,99609.00
2018-12-21T13:38:01.011Z,99605.00
2018-12-21T13:40:49.372Z,99604.00
2018-12-21T13:43:23.878Z,99609.00
2018-12-21T13:45:59.863Z,99621.00
2018-12-21T13:48:33.922Z,99609.00
2018-12-21T13:51:08.378Z,99621.00
2018-12-21T13:53:43.094Z,99612.00
2018-12-21T13:56:17.180Z,99620.00
2018-12-21T13:58:51.247Z,99630.00
2018-12-21T14:01:25.425Z,99642.00
2018-12-21T14:03:57.882Z,99647.00
2018-12-21T14:06:32.146Z,99646.00
2018-12-21T14:09:06.744Z,99644.00
2018-12-21T14:11:54.181Z,99663.00
2018-12-21T14:14:28.163Z,99669.00
2018-12-21T14:17:04.503Z,99671.00
2018-12-21T14:19:38.659Z,99673.00
2018-12-21T14:25:17.047Z,99670.00
2018-12-21T14:27:55.070Z,99673.00
2018-12-21T14:30:33.200Z,99693.00
2018-12-21T14:33:05.063Z,99691.00
2018-12-21T14:35:39.075Z,99710.00
2018-12-21T14:38:13.291Z,99709.00
2018-12-21T14:40:47.335Z,99719.00
2018-12-21T14:43:21.527Z,99721.00
2018-12-21T14:46:14.000Z,99726.00
2018-12-21T14:48:48.458Z,99747.00
2018-12-21T14:51:20.510Z,99736.00
2018-12-21T14:53:54.458Z,99750.00
2018-12-21T14:56:28.862Z,99755.00
2018-12-21T14:59:01.411Z,99763.00
2018-12-21T15:01:35.649Z,99764.00
2018-12-21T15:04:09.728Z,99766.00
2018-12-21T15:06:43.933Z,99776.00
2018-12-21T15:09:18.623Z,99780.00
2018-12-21T15:11:53.070Z,99771.00
2018-12-21T15:14:27.234Z,99786.00
2018-12-21T15:17:01.474Z,99796.00
2018-12-21T15:19:42.439Z,99795.00
2018-12-21T15:22:30.016Z,99805.00
2018-12-21T15:25:04.215Z,99810.00
2018-12-21T15:27:58.803Z,99811.00
2018-12-21T15:30:33.047Z,99833.00
2018-12-21T15:33:07.088Z,99838.00
2018-12-21T15:35:43.408Z,99847.00
2018-12-21T15:38:17.681Z,99835.00
2018-12-21T15:40:52.197Z,99857.00
2018-12-21T15:43:26.288Z,99852.00
2018-12-21T15:46:00.261Z,99863.00
2018-12-21T15:48:34.343Z,99861.00
2018-12-21T15:51:12.452Z,99868.00
2018-12-21T15:53:46.695Z,99884.00
2018-12-21T15:56:20.786Z,99875.00
2018-12-21T15:58:55.638Z,99890.00
2018-12-21T16:01:36.779Z,99888.00
2018-12-21T16:04:09.322Z,99899.00
2018-12-21T16:06:47.643Z,99918.00
2018-12-21T16:09:33.584Z,99913.00
2018-12-21T16:12:08.056Z,99918.00
2018-12-21T16:14:42.146Z,99921.00
2018-12-21T16:17:16.585Z,99931.00
2018-12-21T16:19:50.782Z,99951.00
2018-12-21T16:22:24.983Z,99944.00
2018-12-21T16:24:59.139Z,99966.00
2018-12-21T16:27:33.586Z,99968.00
2018-12-21T16:30:09.672Z,99979.00
2018-12-21T16:32:44.171Z,99975.00
2018-12-21T16:35:18.055Z,99987.00
2018-12-21T16:37:52.152Z,99987.00
2018-12-21T16:40:28.493Z,100009.00
2018-12-21T16:43:03.532Z,100000.00
2018-12-21T16:45:51.976Z,100011.00
2018-12-21T16:48:26.149Z,100010.00
2018-12-21T16:51:00.278Z,100013.00
2018-12-21T16:53:34.629Z,100011.00
2018-12-21T16:56:12.641Z,100006.00
2018-12-21T16:58:45.100Z,100009.00
2018-12-21T17:01:19.361Z,100017.00
2018-12-21T17:03:53.435Z,100019.00
2018-12-21T17:06:27.357Z,100027.00
2018-12-21T17:12:01.694Z,100036.00
2018-12-21T17:14:35.885Z,100042.00
2018-12-21T17:20:15.615Z,100023.00
2018-12-21T17:22:49.805Z,100034.00
2018-12-21T17:25:23.942Z,100022.00
2018-12-21T17:27:58.473Z,100046.00
2018-12-21T17:30:49.198Z,100037.00
2018-12-21T17:33:23.232Z,100063.00
2018-12-21T17:36:01.298Z,100050.00
2018-12-21T17:38:35.656Z,100057.00
2018-12-21T17:41:10.181Z,100055.00
2018-12-21T17:43:57.911Z,100073.00
2018-12-21T17:46:29.802Z,100067.00
2018-12-21T17:49:03.974Z,100067.00
2018-12-21T17:51:38.587Z,100077.00
2018-12-21T17:54:13.267Z,100062.00
2018-12-21T17:57:04.970Z,100086.00
2018-12-21T17:59:37.717Z,100111.00
2018-12-21T18:02:12.089Z,100112.00
2018-12-21T18:04:46.108Z,100114.00
2018-12-21T18:07:20.339Z,100126.00
2018-12-21T18:09:54.399Z,100125.00
2018-12-21T18:12:28.545Z,100120.00
2018-12-21T18:15:16.048Z,100139.00
2018-12-21T18:17:58.421Z,100141.00
2018-12-21T18:20:35.943Z,100136.00
2018-12-21T18:23:11.920Z,100143.00
2018-12-21T18:25:46.403Z,100149.00
2018-12-21T18:28:24.796Z,100154.00
2018-12-21T18:31:08.812Z,100150.00
2018-12-21T18:33:45.307Z,100165.00
2018-12-21T18:36:19.846Z,100166.00
2018-12-21T18:38:54.065Z,100167.00
2018-12-21T18:41:28.427Z,100168.00
2018-12-21T18:44:02.891Z,100196.00
2018-12-21T18:46:43.661Z,100186.00
2018-12-21T18:49:18.060Z,100191.00
2018-12-21T18:51:52.075Z,100204.00
2018-12-21T18:54:26.331Z,100206.00
2018-12-21T18:57:00.490Z,100206.00
2018-12-21T18:59:34.502Z,100195.00
2018-12-21T19:02:08.933Z,100206.00
2018-12-21T19:04:43.000Z,100207.00
2018-12-21T19:07:17.194Z,100210.00
2018-12-21T19:09:51.286Z,100208.00
2018-12-21T19:12:25.621Z,100200.00
2018-12-21T19:14:59.753Z,100208.00
2018-12-21T19:17:34.081Z,100225.00
2018-12-21T19:20:09.340Z,100213.00
2018-12-21T19:22:43.405Z,100226.00
2018-12-21T19:25:17.534Z,100212.00
2018-12-21T19:27:56.105Z,100236.00
2018-12-21T19:30:30.095Z,100244.00
2018-12-21T19:33:04.328Z,100240.00
2018-12-21T19:35:51.843Z,100246.00
2018-12-21T19:38:25.726Z,100244.00
2018-12-21T19:41:00.095Z,100267.00
2018-12-21T19:46:50.560Z,100264.00
2018-12-21T19:49:27.155Z,100275.00
2018-12-21T19:51:58.937Z,100267.00
2018-12-21T19:54:32.841Z,100271.00
2018-12-21T19:57:07.144Z,100267.00
2018-12-21T19:59:41.481Z,100266.00
2018-12-21T20:02:29.873Z,100274.00
2018-12-21T20:05:04.396Z,100270.00
2018-12-21T20:07:36.472Z,100282.00
2018-12-21T20:10:11.808Z,100281.00
2018-12-21T20:12:46.241Z,100277.00
2018-12-21T20:15:20.622Z,100293.00
2018-12-21T20:18:08.354Z,100288.00
2018-12-21T20:20:44.949Z,100285.00
2018-12-21T20:23:21.315Z,100299.00
2018-12-21T20:25:55.477Z,100300.00
2018-12-21T20:28:29.926Z,100308.00
2018-12-21T20:31:03.922Z,100300.00
2018-12-21T20:33:37.971Z,100299.00
2018-12-21T20:36:12.249Z,100322.00
2018-12-21T20:38:46.261Z,100288.00
2018-12-21T20:41:20.822Z,100302.00
2018-12-21T20:43:54.837Z,100317.00
2018-12-21T20:46:29.303Z,100306.00
2018-12-21T20:49:03.324Z,100312.00
2018-12-21T20:51:37.458Z,100310.00
2018-12-21T20:54:12.134Z,100317.00
2018-12-21T20:56:44.102Z,100330.00
2018-12-21T20:59:18.771Z,100326.00
2018-12-21T21:01:53.078Z,100319.00
2018-12-21T21:04:42.067Z,100319.00
2018-12-21T21:07:16.996Z,100310.00
2018-12-21T21:09:51.352Z,100305.00
2018-12-21T21:12:38.764Z,100325.00
2018-12-21T21:15:13.161Z,100316.00
2018-12-21T21:17:47.162Z,100335.00
2018-12-21T21:20:21.318Z,100354.00
2018-12-21T21:22:52.992Z,100337.00
2018-12-21T21:28:32.075Z,100346.00
2018-12-21T21:31:06.743Z,100353.00
2018-12-21T21:33:50.446Z,100360.00
2018-12-21T21:36:22.550Z,100355.00
2018-12-21T21:39:01.077Z,100371.00
2018-12-21T21:41:35.678Z,100369.00
2018-12-21T21:44:09.956Z,100366.00
2018-12-21T21:46:44.209Z,100382.00
2018-12-21T21:49:31.821Z,100380.00
2018-12-21T21:52:05.816Z,100373.00
2018-12-21T21:54:40.147Z,100369.00
2018-12-21T21:57:14.351Z,100375.00
2018-12-21T21:59:48.527Z,100386.00
2018-12-21T22:02:37.977Z,100384.00
2018-12-21T22:05:11.998Z,100386.00
2018-12-21T22:07:46.154Z,100387.00
2018-12-21T22:10:24.223Z,100386.00
2018-12-21T22:12:58.653Z,100396.00
2018-12-21T22:15:32.717Z,100396.00
2018-12-21T22:18:07.189Z,100389.00
2018-12-21T22:20:41.510Z,100404.00
2018-12-21T22:23:15.614Z,100402.00
2018-12-21T22:26:03.153Z,100402.00
2018-12-21T22:28:35.260Z,100414.00
2018-12-21T22:31:13.121Z,100419.00
2018-12-21T22:36:47.504Z,100419.00
2018-12-21T22:39:21.576Z,100422.00
2018-12-21T22:41:55.644Z,100415.00
2018-12-21T22:44:29.919Z,100422.00
2018-12-21T22:47:04.208Z,100408.00
2018-12-21T22:49:38.500Z,100421.00
2018-12-21T22:52:12.613Z,100424.00
2018-12-21T22:54:46.849Z,100417.00
2018-12-21T22:57:20.944Z,100418.00
2018-12-21T22:59:55.301Z,100425.00
2018-12-21T23:02:29.434Z,100423.00
2018-12-21T23:05:04.201Z,100427.00
2018-12-21T23:07:38.015Z,100424.00
2018-12-21T23:10:12.002Z,100422.00
2018-12-21T23:12:47.458Z,100428.00
2018-12-21T23:18:21.798Z,100440.00
2018-12-21T23:20:56.264Z,100434.00
2018-12-21T23:23:30.823Z,100430.00
2018-12-21T23:26:04.842Z,100428.00
2018-12-21T23:28:44.651Z,100433.00
2018-12-21T23:31:18.736Z,100426.00
2018-12-21T23:33:52.924Z,100423.00
2018-12-21T23:36:27.091Z,100433.00
2018-12-21T23:39:20.984Z,100418.00
2018-12-21T23:41:55.463Z,100426.00
2018-12-21T23:44:29.754Z,100435.00
2018-12-21T23:47:08.851Z,100434.00
2018-12-21T23:52:43.166Z,100427.00
2018-12-21T23:55:17.543Z,100419.00
2018-12-21T23:57:51.588Z,100431.00
